sensor_id;sensor_type;location;lat;lon;timestamp;P1;durP1;ratioP1;P2;durP2;ratioP2
22837;SDS011;11585;51.450;-0.240;2023-05-10T00:03:13;7.00;;;4.13;;
22837;SDS011;11585;51.450;-0.240;2023-05-10T00:05:38;12.43;;;3.67;;
22837;SDS011;11585;51.450;-0.240;2023-05-10T00:11:07;10.80;;;4.40;;
22837;SDS011;11585;51.450;-0.240;2023-05-10T00:13:33;11.50;;;3.65;;
22837;SDS011;11585;51.450;-0.240;2023-05-10T00:15:59;7.78;;;4.20;;
22837;SDS011;11585;51.450;-0.240;2023-05-10T00:21:14;9.25;;;4.68;;
22837;SDS011;11585;51.450;-0.240;2023-05-10T00:23:40;11.73;;;4.72;;
22837;SDS011;11585;51.450;-0.240;2023-05-10T00:26:06;9.63;;;4.13;;
22837;SDS011;11585;51.450;-0.240;2023-05-10T00:28:32;9.75;;;4.45;;
22837;SDS011;11585;51.450;-0.240;2023-05-10T00:30:58;8.13;;;4.47;;
22837;SDS011;11585;51.450;-0.240;2023-05-10T00:33:23;12.32;;;4.28;;
22837;SDS011;11585;51.450;-0.240;2023-05-10T00:35:49;15.13;;;4.40;;
22837;SDS011;11585;51.450;-0.240;2023-05-10T00:41:00;10.15;;;5.07;;
22837;SDS011;11585;51.450;-0.240;2023-05-10T00:43:26;8.48;;;4.13;;
22837;SDS011;11585;51.450;-0.240;2023-05-10T00:45:52;10.85;;;4.72;;
22837;SDS011;11585;51.450;-0.240;2023-05-10T00:51:04;11.25;;;4.63;;
22837;SDS011;11585;51.450;-0.240;2023-05-10T00:53:33;7.80;;;4.57;;
22837;SDS011;11585;51.450;-0.240;2023-05-10T00:56:00;11.73;;;4.72;;
22837;SDS011;11585;51.450;-0.240;2023-05-10T00:58:33;9.23;;;4.82;;
22837;SDS011;11585;51.450;-0.240;2023-05-10T01:00:59;10.65;;;4.60;;
22837;SDS011;11585;51.450;-0.240;2023-05-10T01:03:26;12.02;;;4.80;;
22837;SDS011;11585;51.450;-0.240;2023-05-10T01:05:52;11.63;;;4.60;;
22837;SDS011;11585;51.450;-0.240;2023-05-10T01:11:03;6.93;;;4.28;;
22837;SDS011;11585;51.450;-0.240;2023-05-10T01:13:42;9.85;;;4.95;;
22837;SDS011;11585;51.450;-0.240;2023-05-10T01:16:20;8.65;;;4.43;;
22837;SDS011;11585;51.450;-0.240;2023-05-10T01:18:46;11.32;;;5.03;;
22837;SDS011;11585;51.450;-0.240;2023-05-10T01:34:58;11.15;;;4.03;;
22837;SDS011;11585;51.450;-0.240;2023-05-10T01:37:40;12.95;;;4.80;;
22837;SDS011;11585;51.450;-0.240;2023-05-10T01:40:30;10.80;;;4.30;;
22837;SDS011;11585;51.450;-0.240;2023-05-10T01:43:03;9.07;;;4.50;;
22837;SDS011;11585;51.450;-0.240;2023-05-10T01:48:52;13.68;;;4.95;;
22837;SDS011;11585;51.450;-0.240;2023-05-10T01:51:24;6.93;;;4.05;;
22837;SDS011;11585;51.450;-0.240;2023-05-10T01:53:54;10.95;;;5.45;;
22837;SDS011;11585;51.450;-0.240;2023-05-10T01:56:30;11.48;;;5.18;;
22837;SDS011;11585;51.450;-0.240;2023-05-10T02:05:07;11.73;;;5.40;;
22837;SDS011;11585;51.450;-0.240;2023-05-10T02:07:35;9.55;;;4.72;;
22837;SDS011;11585;51.450;-0.240;2023-05-10T02:16:46;18.13;;;6.13;;
22837;SDS011;11585;51.450;-0.240;2023-05-10T02:25:56;12.98;;;5.63;;
22837;SDS011;11585;51.450;-0.240;2023-05-10T02:28:25;18.33;;;6.10;;
22837;SDS011;11585;51.450;-0.240;2023-05-10T02:30:51;19.30;;;5.53;;
22837;SDS011;11585;51.450;-0.240;2023-05-10T02:33:19;10.88;;;5.30;;
22837;SDS011;11585;51.450;-0.240;2023-05-10T02:35:46;13.55;;;5.55;;
22837;SDS011;11585;51.450;-0.240;2023-05-10T02:41:01;12.88;;;5.10;;
22837;SDS011;11585;51.450;-0.240;2023-05-10T02:43:31;10.20;;;5.35;;
22837;SDS011;11585;51.450;-0.240;2023-05-10T02:45:58;10.82;;;5.82;;
22837;SDS011;11585;51.450;-0.240;2023-05-10T02:51:47;13.77;;;6.18;;
22837;SDS011;11585;51.450;-0.240;2023-05-10T02:54:20;18.05;;;6.13;;
22837;SDS011;11585;51.450;-0.240;2023-05-10T02:56:53;15.63;;;6.05;;
22837;SDS011;11585;51.450;-0.240;2023-05-10T02:59:28;15.10;;;6.63;;
22837;SDS011;11585;51.450;-0.240;2023-05-10T03:01:57;15.73;;;6.35;;
22837;SDS011;11585;51.450;-0.240;2023-05-10T03:04:25;17.73;;;6.47;;
22837;SDS011;11585;51.450;-0.240;2023-05-10T03:06:50;17.77;;;6.47;;
22837;SDS011;11585;51.450;-0.240;2023-05-10T03:18:34;14.25;;;6.65;;
22837;SDS011;11585;51.450;-0.240;2023-05-10T03:21:08;10.63;;;5.72;;
22837;SDS011;11585;51.450;-0.240;2023-05-10T03:23:44;15.15;;;6.78;;
22837;SDS011;11585;51.450;-0.240;2023-05-10T03:26:20;15.02;;;7.63;;
22837;SDS011;11585;51.450;-0.240;2023-05-10T03:31:36;16.38;;;7.65;;
22837;SDS011;11585;51.450;-0.240;2023-05-10T03:34:03;16.77;;;6.78;;
22837;SDS011;11585;51.450;-0.240;2023-05-10T03:36:29;17.90;;;7.88;;
22837;SDS011;11585;51.450;-0.240;2023-05-10T03:45:19;15.88;;;7.05;;
22837;SDS011;11585;51.450;-0.240;2023-05-10T03:47:45;21.65;;;7.20;;
22837;SDS011;11585;51.450;-0.240;2023-05-10T03:52:57;15.38;;;7.28;;
22837;SDS011;11585;51.450;-0.240;2023-05-10T03:55:22;15.43;;;7.30;;
22837;SDS011;11585;51.450;-0.240;2023-05-10T03:57:48;14.98;;;7.80;;
22837;SDS011;11585;51.450;-0.240;2023-05-10T04:00:18;22.75;;;8.00;;
22837;SDS011;11585;51.450;-0.240;2023-05-10T04:02:44;16.73;;;7.10;;
22837;SDS011;11585;51.450;-0.240;2023-05-10T04:05:10;25.35;;;8.35;;
22837;SDS011;11585;51.450;-0.240;2023-05-10T04:07:36;23.33;;;9.05;;
22837;SDS011;11585;51.450;-0.240;2023-05-10T04:13:23;17.25;;;8.55;;
22837;SDS011;11585;51.450;-0.240;2023-05-10T04:15:49;17.05;;;7.88;;
22837;SDS011;11585;51.450;-0.240;2023-05-10T04:21:00;15.77;;;7.90;;
22837;SDS011;11585;51.450;-0.240;2023-05-10T04:23:26;18.50;;;9.18;;
22837;SDS011;11585;51.450;-0.240;2023-05-10T04:25:52;18.02;;;8.70;;
22837;SDS011;11585;51.450;-0.240;2023-05-10T04:31:45;22.17;;;9.30;;
22837;SDS011;11585;51.450;-0.240;2023-05-10T04:34:11;16.63;;;8.43;;
22837;SDS011;11585;51.450;-0.240;2023-05-10T04:36:37;18.77;;;8.80;;
22837;SDS011;11585;51.450;-0.240;2023-05-10T04:42:06;24.80;;;8.90;;
22837;SDS011;11585;51.450;-0.240;2023-05-10T04:44:32;21.85;;;9.82;;
22837;SDS011;11585;51.450;-0.240;2023-05-10T04:46:57;23.13;;;9.90;;
22837;SDS011;11585;51.450;-0.240;2023-05-10T04:52:45;26.08;;;10.05;;
22837;SDS011;11585;51.450;-0.240;2023-05-10T04:55:11;21.85;;;9.70;;
22837;SDS011;11585;51.450;-0.240;2023-05-10T04:57:36;23.50;;;9.27;;
22837;SDS011;11585;51.450;-0.240;2023-05-10T05:03:24;18.08;;;9.10;;
22837;SDS011;11585;51.450;-0.240;2023-05-10T05:05:50;22.52;;;9.43;;
22837;SDS011;11585;51.450;-0.240;2023-05-10T05:11:37;23.40;;;9.48;;
22837;SDS011;11585;51.450;-0.240;2023-05-10T05:14:03;22.15;;;9.60;;
22837;SDS011;11585;51.450;-0.240;2023-05-10T05:16:30;27.45;;;9.45;;
22837;SDS011;11585;51.450;-0.240;2023-05-10T05:22:18;25.08;;;9.68;;
22837;SDS011;11585;51.450;-0.240;2023-05-10T05:28:13;19.27;;;8.98;;
22837;SDS011;11585;51.450;-0.240;2023-05-10T05:30:39;27.88;;;9.80;;
22837;SDS011;11585;51.450;-0.240;2023-05-10T05:33:04;25.55;;;10.23;;
22837;SDS011;11585;51.450;-0.240;2023-05-10T05:35:31;31.83;;;11.02;;
22837;SDS011;11585;51.450;-0.240;2023-05-10T05:37:56;24.98;;;11.60;;
22837;SDS011;11585;51.450;-0.240;2023-05-10T05:40:22;26.00;;;11.93;;
22837;SDS011;11585;51.450;-0.240;2023-05-10T05:42:48;25.80;;;11.88;;
22837;SDS011;11585;51.450;-0.240;2023-05-10T05:45:14;24.85;;;12.38;;
22837;SDS011;11585;51.450;-0.240;2023-05-10T05:47:39;27.20;;;11.82;;
22837;SDS011;11585;51.450;-0.240;2023-05-10T05:52:36;26.45;;;11.63;;
22837;SDS011;11585;51.450;-0.240;2023-05-10T05:55:02;28.98;;;12.73;;
22837;SDS011;11585;51.450;-0.240;2023-05-10T05:57:28;26.00;;;10.65;;
22837;SDS011;11585;51.450;-0.240;2023-05-10T06:03:16;30.90;;;10.13;;
22837;SDS011;11585;51.450;-0.240;2023-05-10T06:05:41;24.98;;;9.73;;
22837;SDS011;11585;51.450;-0.240;2023-05-10T06:08:09;23.88;;;9.25;;
22837;SDS011;11585;51.450;-0.240;2023-05-10T06:10:35;22.98;;;8.48;;
22837;SDS011;11585;51.450;-0.240;2023-05-10T06:13:01;21.65;;;8.32;;
22837;SDS011;11585;51.450;-0.240;2023-05-10T06:15:27;22.08;;;9.18;;
22837;SDS011;11585;51.450;-0.240;2023-05-10T06:17:52;19.60;;;7.95;;
22837;SDS011;11585;51.450;-0.240;2023-05-10T06:20:18;16.42;;;7.10;;
22837;SDS011;11585;51.450;-0.240;2023-05-10T06:22:44;24.38;;;7.45;;
22837;SDS011;11585;51.450;-0.240;2023-05-10T06:25:09;19.95;;;7.75;;
22837;SDS011;11585;51.450;-0.240;2023-05-10T06:27:39;20.00;;;7.03;;
22837;SDS011;11585;51.450;-0.240;2023-05-10T06:33:09;22.70;;;7.78;;
22837;SDS011;11585;51.450;-0.240;2023-05-10T06:35:35;19.98;;;6.75;;
22837;SDS011;11585;51.450;-0.240;2023-05-10T06:40:50;20.35;;;6.57;;
22837;SDS011;11585;51.450;-0.240;2023-05-10T06:43:16;14.63;;;5.90;;
22837;SDS011;11585;51.450;-0.240;2023-05-10T06:45:42;16.90;;;6.43;;
22837;SDS011;11585;51.450;-0.240;2023-05-10T06:57:20;26.52;;;6.63;;
22837;SDS011;11585;51.450;-0.240;2023-05-10T07:03:07;14.57;;;7.18;;
22837;SDS011;11585;51.450;-0.240;2023-05-10T07:05:33;23.52;;;6.53;;
22837;SDS011;11585;51.450;-0.240;2023-05-10T07:07:58;18.58;;;6.47;;
22837;SDS011;11585;51.450;-0.240;2023-05-10T07:10:24;26.10;;;7.18;;
22837;SDS011;11585;51.450;-0.240;2023-05-10T07:12:50;21.00;;;6.80;;
22837;SDS011;11585;51.450;-0.240;2023-05-10T07:15:16;32.75;;;8.05;;
22837;SDS011;11585;51.450;-0.240;2023-05-10T07:17:41;22.70;;;8.00;;
22837;SDS011;11585;51.450;-0.240;2023-05-10T07:20:09;24.98;;;7.70;;
22837;SDS011;11585;51.450;-0.240;2023-05-10T07:22:35;21.05;;;6.47;;
22837;SDS011;11585;51.450;-0.240;2023-05-10T07:25:01;20.20;;;7.07;;
22837;SDS011;11585;51.450;-0.240;2023-05-10T07:27:27;21.85;;;6.47;;
22837;SDS011;11585;51.450;-0.240;2023-05-10T07:29:54;18.35;;;7.00;;
22837;SDS011;11585;51.450;-0.240;2023-05-10T07:32:21;22.42;;;6.93;;
22837;SDS011;11585;51.450;-0.240;2023-05-10T07:34:46;20.45;;;7.90;;
22837;SDS011;11585;51.450;-0.240;2023-05-10T07:37:12;23.38;;;8.43;;
22837;SDS011;11585;51.450;-0.240;2023-05-10T07:39:39;19.90;;;7.80;;
22837;SDS011;11585;51.450;-0.240;2023-05-10T07:42:05;28.75;;;8.10;;
22837;SDS011;11585;51.450;-0.240;2023-05-10T07:44:31;17.38;;;7.13;;
22837;SDS011;11585;51.450;-0.240;2023-05-10T07:46:56;20.45;;;7.50;;
22837;SDS011;11585;51.450;-0.240;2023-05-10T07:52:28;18.45;;;6.55;;
22837;SDS011;11585;51.450;-0.240;2023-05-10T07:54:54;22.45;;;8.00;;
22837;SDS011;11585;51.450;-0.240;2023-05-10T07:57:21;31.20;;;8.05;;
22837;SDS011;11585;51.450;-0.240;2023-05-10T07:59:47;18.80;;;7.55;;
22837;SDS011;11585;51.450;-0.240;2023-05-10T08:02:13;21.50;;;6.95;;
22837;SDS011;11585;51.450;-0.240;2023-05-10T08:04:38;20.10;;;7.47;;
22837;SDS011;11585;51.450;-0.240;2023-05-10T08:07:04;18.73;;;8.82;;
22837;SDS011;11585;51.450;-0.240;2023-05-10T08:12:17;19.77;;;8.93;;
22837;SDS011;11585;51.450;-0.240;2023-05-10T08:14:42;27.92;;;10.35;;
22837;SDS011;11585;51.450;-0.240;2023-05-10T08:17:08;25.25;;;9.50;;
22837;SDS011;11585;51.450;-0.240;2023-05-10T08:22:41;27.80;;;9.07;;
22837;SDS011;11585;51.450;-0.240;2023-05-10T08:25:07;23.70;;;9.07;;
22837;SDS011;11585;51.450;-0.240;2023-05-10T08:27:33;22.90;;;8.13;;
22837;SDS011;11585;51.450;-0.240;2023-05-10T08:32:45;24.05;;;9.48;;
22837;SDS011;11585;51.450;-0.240;2023-05-10T08:35:10;20.83;;;9.23;;
22837;SDS011;11585;51.450;-0.240;2023-05-10T08:37:36;23.80;;;9.88;;
22837;SDS011;11585;51.450;-0.240;2023-05-10T08:40:03;22.95;;;9.43;;
22837;SDS011;11585;51.450;-0.240;2023-05-10T08:42:30;21.40;;;9.45;;
22837;SDS011;11585;51.450;-0.240;2023-05-10T08:44:59;24.52;;;10.82;;
22837;SDS011;11585;51.450;-0.240;2023-05-10T08:47:25;27.65;;;10.65;;
22837;SDS011;11585;51.450;-0.240;2023-05-10T08:52:38;22.50;;;9.65;;
22837;SDS011;11585;51.450;-0.240;2023-05-10T08:55:06;17.77;;;9.07;;
22837;SDS011;11585;51.450;-0.240;2023-05-10T08:57:32;25.73;;;9.63;;
22837;SDS011;11585;51.450;-0.240;2023-05-10T09:02:43;24.67;;;10.13;;
22837;SDS011;11585;51.450;-0.240;2023-05-10T09:05:10;21.08;;;9.63;;
22837;SDS011;11585;51.450;-0.240;2023-05-10T09:07:37;23.73;;;9.50;;
22837;SDS011;11585;51.450;-0.240;2023-05-10T09:10:02;21.75;;;9.57;;
22837;SDS011;11585;51.450;-0.240;2023-05-10T09:12:29;20.92;;;8.93;;
22837;SDS011;11585;51.450;-0.240;2023-05-10T09:14:55;23.98;;;8.32;;
22837;SDS011;11585;51.450;-0.240;2023-05-10T09:17:24;21.67;;;10.32;;
22837;SDS011;11585;51.450;-0.240;2023-05-10T09:20:02;27.25;;;10.18;;
22837;SDS011;11585;51.450;-0.240;2023-05-10T09:22:31;27.67;;;11.55;;
22837;SDS011;11585;51.450;-0.240;2023-05-10T09:27:33;24.05;;;10.32;;
22837;SDS011;11585;51.450;-0.240;2023-05-10T09:30:01;23.17;;;10.52;;
22837;SDS011;11585;51.450;-0.240;2023-05-10T09:32:38;22.55;;;10.80;;
22837;SDS011;11585;51.450;-0.240;2023-05-10T09:35:11;23.83;;;9.20;;
22837;SDS011;11585;51.450;-0.240;2023-05-10T09:37:42;17.52;;;9.07;;
22837;SDS011;11585;51.450;-0.240;2023-05-10T09:40:13;22.35;;;8.95;;
22837;SDS011;11585;51.450;-0.240;2023-05-10T09:45:20;18.77;;;6.78;;
22837;SDS011;11585;51.450;-0.240;2023-05-10T09:47:46;21.02;;;5.97;;
22837;SDS011;11585;51.450;-0.240;2023-05-10T09:50:12;10.38;;;5.03;;
22837;SDS011;11585;51.450;-0.240;2023-05-10T09:52:47;14.70;;;6.13;;
22837;SDS011;11585;51.450;-0.240;2023-05-10T09:55:16;18.60;;;5.97;;
22837;SDS011;11585;51.450;-0.240;2023-05-10T09:57:43;13.68;;;6.40;;
22837;SDS011;11585;51.450;-0.240;2023-05-10T10:02:58;16.05;;;5.97;;
22837;SDS011;11585;51.450;-0.240;2023-05-10T10:05:28;14.55;;;4.95;;
22837;SDS011;11585;51.450;-0.240;2023-05-10T10:07:58;21.80;;;6.78;;
22837;SDS011;11585;51.450;-0.240;2023-05-10T10:10:25;21.90;;;6.78;;
22837;SDS011;11585;51.450;-0.240;2023-05-10T10:12:51;13.73;;;5.88;;
22837;SDS011;11585;51.450;-0.240;2023-05-10T10:15:17;14.68;;;5.35;;
22837;SDS011;11585;51.450;-0.240;2023-05-10T10:17:43;17.08;;;6.38;;
22837;SDS011;11585;51.450;-0.240;2023-05-10T10:20:12;16.50;;;5.90;;
22837;SDS011;11585;51.450;-0.240;2023-05-10T10:22:39;23.15;;;6.93;;
22837;SDS011;11585;51.450;-0.240;2023-05-10T10:25:05;13.40;;;5.78;;
22837;SDS011;11585;51.450;-0.240;2023-05-10T10:35:24;14.45;;;6.28;;
22837;SDS011;11585;51.450;-0.240;2023-05-10T10:37:50;10.25;;;4.45;;
22837;SDS011;11585;51.450;-0.240;2023-05-10T10:40:23;13.43;;;5.68;;
22837;SDS011;11585;51.450;-0.240;2023-05-10T10:42:50;11.55;;;5.20;;
22837;SDS011;11585;51.450;-0.240;2023-05-10T10:45:15;17.77;;;6.07;;
22837;SDS011;11585;51.450;-0.240;2023-05-10T10:47:41;18.13;;;5.18;;
22837;SDS011;11585;51.450;-0.240;2023-05-10T10:50:09;14.98;;;3.55;;
22837;SDS011;11585;51.450;-0.240;2023-05-10T10:52:38;0.30;;;0.30;;
22837;SDS011;11585;51.450;-0.240;2023-05-10T10:57:47;8.50;;;3.47;;
22837;SDS011;11585;51.450;-0.240;2023-05-10T11:03:05;5.03;;;2.72;;
22837;SDS011;11585;51.450;-0.240;2023-05-10T11:05:44;10.55;;;3.45;;
22837;SDS011;11585;51.450;-0.240;2023-05-10T11:13:46;5.60;;;3.15;;
22837;SDS011;11585;51.450;-0.240;2023-05-10T11:16:20;10.35;;;3.75;;
22837;SDS011;11585;51.450;-0.240;2023-05-10T11:21:28;15.35;;;4.07;;
22837;SDS011;11585;51.450;-0.240;2023-05-10T11:23:58;14.32;;;4.05;;
22837;SDS011;11585;51.450;-0.240;2023-05-10T11:26:26;18.08;;;4.97;;
22837;SDS011;11585;51.450;-0.240;2023-05-10T11:28:58;15.18;;;4.97;;
22837;SDS011;11585;51.450;-0.240;2023-05-10T11:31:26;16.33;;;3.95;;
22837;SDS011;11585;51.450;-0.240;2023-05-10T11:33:58;11.60;;;3.38;;
22837;SDS011;11585;51.450;-0.240;2023-05-10T11:36:33;9.45;;;3.33;;
22837;SDS011;11585;51.450;-0.240;2023-05-10T11:38:59;7.25;;;3.70;;
22837;SDS011;11585;51.450;-0.240;2023-05-10T11:41:26;12.60;;;3.63;;
22837;SDS011;11585;51.450;-0.240;2023-05-10T11:43:53;15.98;;;4.18;;
22837;SDS011;11585;51.450;-0.240;2023-05-10T11:46:20;7.90;;;3.10;;
22837;SDS011;11585;51.450;-0.240;2023-05-10T11:51:24;13.52;;;3.80;;
22837;SDS011;11585;51.450;-0.240;2023-05-10T11:53:50;10.70;;;3.55;;
22837;SDS011;11585;51.450;-0.240;2023-05-10T11:56:18;21.95;;;5.70;;
22837;SDS011;11585;51.450;-0.240;2023-05-10T11:58:53;8.07;;;3.28;;
22837;SDS011;11585;51.450;-0.240;2023-05-10T12:01:23;8.80;;;3.88;;
22837;SDS011;11585;51.450;-0.240;2023-05-10T12:03:53;14.82;;;4.15;;
22837;SDS011;11585;51.450;-0.240;2023-05-10T12:06:33;14.57;;;3.33;;
22837;SDS011;11585;51.450;-0.240;2023-05-10T12:09:07;16.92;;;3.85;;
22837;SDS011;11585;51.450;-0.240;2023-05-10T12:11:36;10.82;;;3.15;;
22837;SDS011;11585;51.450;-0.240;2023-05-10T12:14:05;6.55;;;3.20;;
22837;SDS011;11585;51.450;-0.240;2023-05-10T12:16:33;16.30;;;4.38;;
22837;SDS011;11585;51.450;-0.240;2023-05-10T12:19:01;12.98;;;3.78;;
22837;SDS011;11585;51.450;-0.240;2023-05-10T12:21:27;8.27;;;4.50;;
22837;SDS011;11585;51.450;-0.240;2023-05-10T12:24:00;11.93;;;3.10;;
22837;SDS011;11585;51.450;-0.240;2023-05-10T12:26:27;6.88;;;2.53;;
22837;SDS011;11585;51.450;-0.240;2023-05-10T12:29:02;8.35;;;3.10;;
22837;SDS011;11585;51.450;-0.240;2023-05-10T12:31:53;15.68;;;3.72;;
22837;SDS011;11585;51.450;-0.240;2023-05-10T12:34:37;14.00;;;4.15;;
22837;SDS011;11585;51.450;-0.240;2023-05-10T12:37:03;11.55;;;4.15;;
22837;SDS011;11585;51.450;-0.240;2023-05-10T12:42:24;12.55;;;4.13;;
22837;SDS011;11585;51.450;-0.240;2023-05-10T12:44:55;19.23;;;4.68;;
22837;SDS011;11585;51.450;-0.240;2023-05-10T12:47:21;13.75;;;4.13;;
22837;SDS011;11585;51.450;-0.240;2023-05-10T12:49:47;14.77;;;5.30;;
22837;SDS011;11585;51.450;-0.240;2023-05-10T12:52:13;22.42;;;5.22;;
22837;SDS011;11585;51.450;-0.240;2023-05-10T12:54:39;20.45;;;5.93;;
22837;SDS011;11585;51.450;-0.240;2023-05-10T12:57:04;20.58;;;5.22;;
22837;SDS011;11585;51.450;-0.240;2023-05-10T12:59:30;14.77;;;4.97;;
22837;SDS011;11585;51.450;-0.240;2023-05-10T13:01:57;17.20;;;4.95;;
22837;SDS011;11585;51.450;-0.240;2023-05-10T13:04:22;16.85;;;5.07;;
22837;SDS011;11585;51.450;-0.240;2023-05-10T13:06:48;19.25;;;5.30;;
22837;SDS011;11585;51.450;-0.240;2023-05-10T13:11:59;9.65;;;3.85;;
22837;SDS011;11585;51.450;-0.240;2023-05-10T13:14:25;11.07;;;4.03;;
22837;SDS011;11585;51.450;-0.240;2023-05-10T13:16:51;11.93;;;5.18;;
22837;SDS011;11585;51.450;-0.240;2023-05-10T13:19:17;17.13;;;4.82;;
22837;SDS011;11585;51.450;-0.240;2023-05-10T13:21:43;12.68;;;4.63;;
22837;SDS011;11585;51.450;-0.240;2023-05-10T13:24:11;16.38;;;4.82;;
22837;SDS011;11585;51.450;-0.240;2023-05-10T13:26:39;14.38;;;4.40;;
22837;SDS011;11585;51.450;-0.240;2023-05-10T13:29:06;14.07;;;4.28;;
22837;SDS011;11585;51.450;-0.240;2023-05-10T13:31:32;14.20;;;4.60;;
22837;SDS011;11585;51.450;-0.240;2023-05-10T13:34:01;13.98;;;4.25;;
22837;SDS011;11585;51.450;-0.240;2023-05-10T13:36:27;15.32;;;4.38;;
22837;SDS011;11585;51.450;-0.240;2023-05-10T13:38:53;16.08;;;4.85;;
22837;SDS011;11585;51.450;-0.240;2023-05-10T13:41:22;14.00;;;3.85;;
22837;SDS011;11585;51.450;-0.240;2023-05-10T13:43:50;10.30;;;3.85;;
22837;SDS011;11585;51.450;-0.240;2023-05-10T13:46:32;6.78;;;3.13;;
22837;SDS011;11585;51.450;-0.240;2023-05-10T13:52:06;5.95;;;2.88;;
22837;SDS011;11585;51.450;-0.240;2023-05-10T13:54:39;8.27;;;3.20;;
22837;SDS011;11585;51.450;-0.240;2023-05-10T13:57:05;12.20;;;3.40;;
22837;SDS011;11585;51.450;-0.240;2023-05-10T13:59:53;8.63;;;3.47;;
22837;SDS011;11585;51.450;-0.240;2023-05-10T14:02:19;7.95;;;2.88;;
22837;SDS011;11585;51.450;-0.240;2023-05-10T14:04:45;17.67;;;2.88;;
22837;SDS011;11585;51.450;-0.240;2023-05-10T14:07:11;8.57;;;2.90;;
22837;SDS011;11585;51.450;-0.240;2023-05-10T14:09:37;6.13;;;2.60;;
22837;SDS011;11585;51.450;-0.240;2023-05-10T14:12:03;7.15;;;2.10;;
22837;SDS011;11585;51.450;-0.240;2023-05-10T14:14:34;0.82;;;0.55;;
22837;SDS011;11585;51.450;-0.240;2023-05-10T14:17:05;7.78;;;3.33;;
22837;SDS011;11585;51.450;-0.240;2023-05-10T14:22:34;9.95;;;4.03;;
22837;SDS011;11585;51.450;-0.240;2023-05-10T14:25:02;10.40;;;3.10;;
22837;SDS011;11585;51.450;-0.240;2023-05-10T14:27:28;12.13;;;3.50;;
22837;SDS011;11585;51.450;-0.240;2023-05-10T14:29:55;13.25;;;3.60;;
22837;SDS011;11585;51.450;-0.240;2023-05-10T14:32:21;13.55;;;3.92;;
22837;SDS011;11585;51.450;-0.240;2023-05-10T14:34:52;14.63;;;4.70;;
22837;SDS011;11585;51.450;-0.240;2023-05-10T14:37:21;12.30;;;4.18;;
22837;SDS011;11585;51.450;-0.240;2023-05-10T14:39:50;12.88;;;4.60;;
22837;SDS011;11585;51.450;-0.240;2023-05-10T14:42:17;14.60;;;4.15;;
22837;SDS011;11585;51.450;-0.240;2023-05-10T14:44:43;9.88;;;3.83;;
22837;SDS011;11585;51.450;-0.240;2023-05-10T14:47:12;12.18;;;4.40;;
22837;SDS011;11585;51.450;-0.240;2023-05-10T14:49:46;8.50;;;3.10;;
22837;SDS011;11585;51.450;-0.240;2023-05-10T14:52:12;8.45;;;3.20;;
22837;SDS011;11585;51.450;-0.240;2023-05-10T14:54:43;8.40;;;2.67;;
22837;SDS011;11585;51.450;-0.240;2023-05-10T14:57:08;4.63;;;2.00;;
22837;SDS011;11585;51.450;-0.240;2023-05-10T14:59:36;4.82;;;1.90;;
22837;SDS011;11585;51.450;-0.240;2023-05-10T15:02:02;4.40;;;1.92;;
22837;SDS011;11585;51.450;-0.240;2023-05-10T15:04:29;4.13;;;2.03;;
22837;SDS011;11585;51.450;-0.240;2023-05-10T15:06:55;5.30;;;1.60;;
22837;SDS011;11585;51.450;-0.240;2023-05-10T15:09:24;5.50;;;1.80;;
22837;SDS011;11585;51.450;-0.240;2023-05-10T15:11:53;10.63;;;3.23;;
22837;SDS011;11585;51.450;-0.240;2023-05-10T15:14:18;6.53;;;2.08;;
22837;SDS011;11585;51.450;-0.240;2023-05-10T15:16:44;6.78;;;2.03;;
22837;SDS011;11585;51.450;-0.240;2023-05-10T15:19:12;5.18;;;2.33;;
22837;SDS011;11585;51.450;-0.240;2023-05-10T15:21:38;9.02;;;2.67;;
22837;SDS011;11585;51.450;-0.240;2023-05-10T15:24:07;7.85;;;2.30;;
22837;SDS011;11585;51.450;-0.240;2023-05-10T15:28:58;5.90;;;1.85;;
22837;SDS011;11585;51.450;-0.240;2023-05-10T15:31:24;4.88;;;2.47;;
22837;SDS011;11585;51.450;-0.240;2023-05-10T15:33:49;6.47;;;2.47;;
22837;SDS011;11585;51.450;-0.240;2023-05-10T15:36:15;6.43;;;2.08;;
22837;SDS011;11585;51.450;-0.240;2023-05-10T15:38:45;5.45;;;1.92;;
22837;SDS011;11585;51.450;-0.240;2023-05-10T15:41:10;5.82;;;2.30;;
22837;SDS011;11585;51.450;-0.240;2023-05-10T15:43:36;8.77;;;4.22;;
22837;SDS011;11585;51.450;-0.240;2023-05-10T15:46:02;6.70;;;2.47;;
22837;SDS011;11585;51.450;-0.240;2023-05-10T15:48:28;4.35;;;2.08;;
22837;SDS011;11585;51.450;-0.240;2023-05-10T15:50:56;8.85;;;2.95;;
22837;SDS011;11585;51.450;-0.240;2023-05-10T15:53:21;8.88;;;2.88;;
22837;SDS011;11585;51.450;-0.240;2023-05-10T15:55:47;10.63;;;2.72;;
22837;SDS011;11585;51.450;-0.240;2023-05-10T16:00:59;7.68;;;2.45;;
22837;SDS011;11585;51.450;-0.240;2023-05-10T16:03:25;12.77;;;5.00;;
22837;SDS011;11585;51.450;-0.240;2023-05-10T16:05:51;9.85;;;3.00;;
22837;SDS011;11585;51.450;-0.240;2023-05-10T16:11:41;14.20;;;5.15;;
22837;SDS011;11585;51.450;-0.240;2023-05-10T16:14:07;8.93;;;3.22;;
22837;SDS011;11585;51.450;-0.240;2023-05-10T16:16:33;10.30;;;3.35;;
22837;SDS011;11585;51.450;-0.240;2023-05-10T16:22:24;6.05;;;2.38;;
22837;SDS011;11585;51.450;-0.240;2023-05-10T16:24:53;6.25;;;2.10;;
22837;SDS011;11585;51.450;-0.240;2023-05-10T16:27:21;6.10;;;1.98;;
22837;SDS011;11585;51.450;-0.240;2023-05-10T16:29:49;10.73;;;4.65;;
22837;SDS011;11585;51.450;-0.240;2023-05-10T16:32:18;3.33;;;1.90;;
22837;SDS011;11585;51.450;-0.240;2023-05-10T16:37:09;5.80;;;1.83;;
22837;SDS011;11585;51.450;-0.240;2023-05-10T16:42:23;7.88;;;2.50;;
22837;SDS011;11585;51.450;-0.240;2023-05-10T16:44:50;8.02;;;2.08;;
22837;SDS011;11585;51.450;-0.240;2023-05-10T16:47:15;8.70;;;2.50;;
22837;SDS011;11585;51.450;-0.240;2023-05-10T16:52:29;5.20;;;2.10;;
22837;SDS011;11585;51.450;-0.240;2023-05-10T16:54:58;7.40;;;1.92;;
22837;SDS011;11585;51.450;-0.240;2023-05-10T16:57:24;7.28;;;2.47;;
22837;SDS011;11585;51.450;-0.240;2023-05-10T17:02:36;3.88;;;1.95;;
22837;SDS011;11585;51.450;-0.240;2023-05-10T17:05:02;5.43;;;2.00;;
22837;SDS011;11585;51.450;-0.240;2023-05-10T17:07:28;11.52;;;3.58;;
22837;SDS011;11585;51.450;-0.240;2023-05-10T17:13:16;5.88;;;2.78;;
22837;SDS011;11585;51.450;-0.240;2023-05-10T17:15:42;5.85;;;2.20;;
22837;SDS011;11585;51.450;-0.240;2023-05-10T17:18:10;8.93;;;2.50;;
22837;SDS011;11585;51.450;-0.240;2023-05-10T17:20:36;5.03;;;1.83;;
22837;SDS011;11585;51.450;-0.240;2023-05-10T17:23:02;6.35;;;2.10;;
22837;SDS011;11585;51.450;-0.240;2023-05-10T17:25:27;5.82;;;2.28;;
22837;SDS011;11585;51.450;-0.240;2023-05-10T17:27:53;4.68;;;2.20;;
22837;SDS011;11585;51.450;-0.240;2023-05-10T17:30:19;7.82;;;2.83;;
22837;SDS011;11585;51.450;-0.240;2023-05-10T17:32:50;3.88;;;2.25;;
22837;SDS011;11585;51.450;-0.240;2023-05-10T17:35:16;4.18;;;2.38;;
22837;SDS011;11585;51.450;-0.240;2023-05-10T17:37:42;7.38;;;3.28;;
22837;SDS011;11585;51.450;-0.240;2023-05-10T17:46:00;5.70;;;2.85;;
22837;SDS011;11585;51.450;-0.240;2023-05-10T17:51:48;6.15;;;2.33;;
22837;SDS011;11585;51.450;-0.240;2023-05-10T17:54:13;11.80;;;2.38;;
22837;SDS011;11585;51.450;-0.240;2023-05-10T17:56:39;4.90;;;2.55;;
22837;SDS011;11585;51.450;-0.240;2023-05-10T18:01:35;5.68;;;2.65;;
22837;SDS011;11585;51.450;-0.240;2023-05-10T18:04:00;5.90;;;2.92;;
22837;SDS011;11585;51.450;-0.240;2023-05-10T18:06:26;7.68;;;3.22;;
22837;SDS011;11585;51.450;-0.240;2023-05-10T18:08:53;7.72;;;2.78;;
22837;SDS011;11585;51.450;-0.240;2023-05-10T18:11:18;7.18;;;2.53;;
22837;SDS011;11585;51.450;-0.240;2023-05-10T18:13:44;5.75;;;2.08;;
22837;SDS011;11585;51.450;-0.240;2023-05-10T18:16:09;8.82;;;2.85;;
22837;SDS011;11585;51.450;-0.240;2023-05-10T18:18:37;9.18;;;2.95;;